West Boothbay Harbor, ME (04575)

23:54 EDT le 31 octobre 2014 (GMT -0400)
Harborfields.com | Change Station
CLOSE
Current Station
Stations météorologiques personnelles
Location: West Boothbay Harbor, ME
Altitude: 0 ft
Stations météo à proximité

Alt. 0 ft 43.84 °N, 69.65 °W | Updated 2 minutes ago

Partiellement nuageux
Partiellement nuageux
42.4 ° F
Paraît 40 ° F
N
4.0
Vent Variable Vent de NO
Gusts 6.0 mph

Aujourd'hui
Haut(e) -- | Bas -- ° F
--% Risque de précip.
Hier
Haut(e) -- | Bas -- ° F
Precip. -- pouce
7:13 AM 5:30 PM
Lune gibbeuse croissante, 62% visible
Pression 30.05 pouce
Visibilité 10.0 Miles terrestres
Nuages Nuages épars 4900 ft
Refroidissement éolien 40 ° F
Point de rosée 35 ° F
Humidité 74%
Précipitations 0.00 pouce
Profondeur de la couche neigeuse Non disponible.
UV 0 sur 12
Pollen .50 sur 12
Qualité de l'air Non disponible.
Flu Activity Non disponible.
METAR KIWI 010253Z AUTO 00000KT 10SM SCT049 05/00 A3005 RMK AO2 SLP174 T00500000 58008

More Conditions Fewer Conditions

Pression 30.05 pouce
Visibilité 10.0 Miles terrestres
Nuages Nuages épars 4900 ft
Refroidissement éolien 40 ° F
Point de rosée 35 ° F
Humidité 74%
Précipitations 0.00 pouce
Profondeur de la couche neigeuse Non disponible.
UV 0 sur 12
Pollen .50 sur 12
Qualité de l'air Non disponible.
Flu Activity Non disponible.
METAR KIWI 010253Z AUTO 00000KT 10SM SCT049 05/00 A3005 RMK AO2 SLP174 T00500000 58008

More Conditions Fewer Conditions

10-Day Weather Forecast

Almanac

Astronomie

Oct. 31, 2014 Lever Coucher
Temps réel
Crépuscule civil
Crépuscule nautique
Crépuscule astronomique
Lune
Durée de lumière visible
Longueur du jour
Tomorrow will be .
, % of the Moon is Illuminated

Extrêmes aujourd'hui

State Highs State Lows

Community

WunderPhotos

Upload Photos

1,766,847 Photos téléchargées !

WunderBlogs® & News

Nearby

Qualité de l'air

  Qualité de l'air Indice de la qualité de l'air Polluant
Not available.

Épaisseur de neige

Station Depth Altitude

Activité sismique

Ville Distance Mag. Time & Date
Minimum magnitude displayed is 2.5.

Températures des eaux côtières

Lieu Température

Stations météo à proximité